To NAV CANADA Home Page Login to a new session Search on AWWS site Feedback and Comments Disclaimer Vers la page française équivalente Tips FAQ What's new on the site To the Forecasts and Observations / NOTAM section To "File a Flight Plan" website Publications and other links Update of the User's profile FIC Telephone Numbers My Weather Data Folder Route Weather Data Regional Weather Data Local Weather Data To the Forecasts and Observations / NOTAM section
Request Generated 05/06/2016 at 01:45:11 UTC . Weather information available at that time is displayed.

METAR/TAF

YARMOUTH/NS    

METAR CYQI 060100Z 05011G16KT 6SM -SHRA BR OVC006 08/08 A2962 RMK SF8
SLP033=
METAR CYQI 060000Z 06010G17KT 10SM -SHRA OVC006 09/09 A2964 RMK SF8
SLP041=
METAR CYQI 052300Z 07012G19KT 9SM -SHRA OVC008 10/09 A2966 RMK SF8
CVCTV CLD EMBD SLP047=

TAF CYQI 052338Z 0600/0612 07012KT 6SM -RA BR OVC010 TEMPO 0600/0602
2SM -RA BR OVC005
FM060200 05015KT 2SM -RA BR OVC003 TEMPO 0602/0607 4SM -RA BR
FM060700 15008KT 1/2SM -DZ FG VV002
RMK NXT FCST BY 060600Z=
Your time UTC time
Weather data provided by Environment Canada and NAV CANADA